Cruz, Mexico

9:17 PM CST on February 27, 2017 (GMT -0600)
Ponciano Arriaga International | | Change Station

Elev 6033 ft 22.25 °N, 100.93 °W | Updated 30 minutes ago

Clear
Clear
70 °F
Feels Like 70 °F
N
4
Wind Variable Wind from WSW

Today
High -- | Low -- °F
--% Chance of Precip.
Yesterday
High -- | Low -- °F
Precip. -- in
Pressure 29.76 in
Visibility 8.0 miles
Clouds Clear
Dew Point 27 °F
Humidity 20%
Rainfall 0.00 in
Snow Depth Not available.
7:04 AM 6:45 PM
Waxing Crescent, 3% visible
METAR MMSP 280247Z 25003KT 8SM SKC 21/M03 A3018 RMK SLP076 55006 909 SC
Pressure 29.76 in
Visibility 8.0 miles
Clouds Clear
Dew Point 27 °F
Humidity 20%
Rainfall 0.00 in
Snow Depth Not available.
7:04 AM 6:45 PM
Waxing Crescent, 3% visible
METAR MMSP 280247Z 25003KT 8SM SKC 21/M03 A3018 RMK SLP076 55006 909 SC

Get Your Daily Forecast Email!

Thanks for signing up!

Be on the lookout for a verification email in your inbox.

You'll start receiving the daily forecast at 8 AM.

×

10-Day Weather Forecast

No radar image for this location.
×

Almanac

Astronomy

Feb. 27, 2017 Rise Set
Actual Time
Civil Twilight
Nautical Twilight
Astronomical Twilight
Moon
Length of Visible Light
Length of Day
Tomorrow will be .
, % of the Moon is Illuminated

Today's Extremes

Country Highs Country Lows

Community

WunderPhotos

Upload Photos

1,962,540 photos uploaded!

WunderBlog® & News

Nearby

Air Quality

  Air Quality AQ Index Pollutant
Not available.

Snow Depth

Station Depth Elevation

Earthquake Activity

City Distance Mag. Time & Date
Minimum magnitude displayed is 2.5.

Coastal Water Temperatures

Place Temperature

Stations

Nearby Weather Stations

Station Location Temp. Windchill Dew Point Humidity Wind Precip. Elev Updated Type